sensor_id;sensor_type;location;lat;lon;timestamp;temperature;humidity
12893;DHT22;6514;48.606;9.222;2022-07-29T00:00:08;18.30;99.90
12893;DHT22;6514;48.606;9.222;2022-07-29T00:02:36;18.40;99.90
12893;DHT22;6514;48.606;9.222;2022-07-29T00:05:04;18.40;99.90
12893;DHT22;6514;48.606;9.222;2022-07-29T00:07:31;18.40;99.90
12893;DHT22;6514;48.606;9.222;2022-07-29T00:09:59;18.40;99.90
12893;DHT22;6514;48.606;9.222;2022-07-29T00:12:26;18.40;99.90
12893;DHT22;6514;48.606;9.222;2022-07-29T00:14:54;18.30;99.90
12893;DHT22;6514;48.606;9.222;2022-07-29T00:17:21;18.30;99.90
12893;DHT22;6514;48.606;9.222;2022-07-29T00:19:48;18.30;99.90
12893;DHT22;6514;48.606;9.222;2022-07-29T00:22:15;18.30;99.90
12893;DHT22;6514;48.606;9.222;2022-07-29T00:24:42;18.20;99.90
12893;DHT22;6514;48.606;9.222;2022-07-29T00:27:10;18.20;99.90
12893;DHT22;6514;48.606;9.222;2022-07-29T00:29:37;18.10;99.90
12893;DHT22;6514;48.606;9.222;2022-07-29T00:32:05;18.10;99.90
12893;DHT22;6514;48.606;9.222;2022-07-29T00:34:32;18.00;99.90
12893;DHT22;6514;48.606;9.222;2022-07-29T00:37:16;18.00;99.90
12893;DHT22;6514;48.606;9.222;2022-07-29T00:39:43;17.90;99.90
12893;DHT22;6514;48.606;9.222;2022-07-29T00:42:12;17.90;99.90
12893;DHT22;6514;48.606;9.222;2022-07-29T00:44:39;17.90;99.90
12893;DHT22;6514;48.606;9.222;2022-07-29T00:47:07;17.90;99.90
12893;DHT22;6514;48.606;9.222;2022-07-29T00:49:35;17.90;99.90
12893;DHT22;6514;48.606;9.222;2022-07-29T00:52:02;17.80;99.90
12893;DHT22;6514;48.606;9.222;2022-07-29T00:54:29;17.80;99.90
12893;DHT22;6514;48.606;9.222;2022-07-29T00:56:58;17.80;99.90
12893;DHT22;6514;48.606;9.222;2022-07-29T00:59:27;17.80;99.90
12893;DHT22;6514;48.606;9.222;2022-07-29T01:01:54;17.70;99.90
12893;DHT22;6514;48.606;9.222;2022-07-29T01:04:22;17.70;99.90
12893;DHT22;6514;48.606;9.222;2022-07-29T01:06:49;17.60;99.90
12893;DHT22;6514;48.606;9.222;2022-07-29T01:09:18;17.60;99.90
12893;DHT22;6514;48.606;9.222;2022-07-29T01:11:46;17.50;99.90
12893;DHT22;6514;48.606;9.222;2022-07-29T01:14:14;17.50;99.90
12893;DHT22;6514;48.606;9.222;2022-07-29T01:16:48;17.60;99.90
12893;DHT22;6514;48.606;9.222;2022-07-29T01:19:33;17.50;99.90
12893;DHT22;6514;48.606;9.222;2022-07-29T01:22:24;17.40;99.90
12893;DHT22;6514;48.606;9.222;2022-07-29T01:28:07;17.30;99.90
12893;DHT22;6514;48.606;9.222;2022-07-29T01:30:38;17.30;99.90
12893;DHT22;6514;48.606;9.222;2022-07-29T01:33:09;17.30;99.90
12893;DHT22;6514;48.606;9.222;2022-07-29T01:35:39;17.20;99.90
12893;DHT22;6514;48.606;9.222;2022-07-29T01:38:10;17.20;99.90
12893;DHT22;6514;48.606;9.222;2022-07-29T01:40:43;17.20;99.90
12893;DHT22;6514;48.606;9.222;2022-07-29T01:43:14;17.10;99.90
12893;DHT22;6514;48.606;9.222;2022-07-29T01:45:46;17.10;99.90
12893;DHT22;6514;48.606;9.222;2022-07-29T01:48:17;17.10;99.90
12893;DHT22;6514;48.606;9.222;2022-07-29T01:50:48;16.90;99.90
12893;DHT22;6514;48.606;9.222;2022-07-29T01:53:21;17.10;99.90
12893;DHT22;6514;48.606;9.222;2022-07-29T01:55:50;17.10;99.90
12893;DHT22;6514;48.606;9.222;2022-07-29T01:58:19;17.10;99.90
12893;DHT22;6514;48.606;9.222;2022-07-29T02:00:49;17.10;99.90
12893;DHT22;6514;48.606;9.222;2022-07-29T02:03:17;17.10;99.90
12893;DHT22;6514;48.606;9.222;2022-07-29T02:05:47;17.20;99.90
12893;DHT22;6514;48.606;9.222;2022-07-29T02:08:15;17.20;99.90
12893;DHT22;6514;48.606;9.222;2022-07-29T02:10:44;17.10;99.90
12893;DHT22;6514;48.606;9.222;2022-07-29T02:13:12;17.10;99.90
12893;DHT22;6514;48.606;9.222;2022-07-29T02:15:41;17.10;99.90
12893;DHT22;6514;48.606;9.222;2022-07-29T02:18:14;17.20;99.90
12893;DHT22;6514;48.606;9.222;2022-07-29T02:20:45;17.20;99.90
12893;DHT22;6514;48.606;9.222;2022-07-29T02:23:15;17.20;99.90
12893;DHT22;6514;48.606;9.222;2022-07-29T02:25:45;17.20;99.90
12893;DHT22;6514;48.606;9.222;2022-07-29T02:28:14;17.20;99.90
12893;DHT22;6514;48.606;9.222;2022-07-29T02:30:42;17.20;99.90
12893;DHT22;6514;48.606;9.222;2022-07-29T02:33:14;17.10;99.90
12893;DHT22;6514;48.606;9.222;2022-07-29T02:35:44;17.10;99.90
12893;DHT22;6514;48.606;9.222;2022-07-29T02:38:13;17.10;99.90
12893;DHT22;6514;48.606;9.222;2022-07-29T02:41:01;17.10;99.90
12893;DHT22;6514;48.606;9.222;2022-07-29T02:43:29;17.10;99.90
12893;DHT22;6514;48.606;9.222;2022-07-29T02:45:58;17.10;99.90
12893;DHT22;6514;48.606;9.222;2022-07-29T02:48:32;17.00;99.90
12893;DHT22;6514;48.606;9.222;2022-07-29T02:51:06;17.00;99.90
12893;DHT22;6514;48.606;9.222;2022-07-29T02:53:34;17.00;99.90
12893;DHT22;6514;48.606;9.222;2022-07-29T02:56:06;16.90;99.90
12893;DHT22;6514;48.606;9.222;2022-07-29T02:58:39;16.90;99.90
12893;DHT22;6514;48.606;9.222;2022-07-29T03:01:11;16.90;99.90
12893;DHT22;6514;48.606;9.222;2022-07-29T03:03:43;16.90;99.90
12893;DHT22;6514;48.606;9.222;2022-07-29T03:06:13;16.80;99.90
12893;DHT22;6514;48.606;9.222;2022-07-29T03:08:40;16.80;99.90
12893;DHT22;6514;48.606;9.222;2022-07-29T03:11:08;16.80;99.90
12893;DHT22;6514;48.606;9.222;2022-07-29T03:13:36;16.80;99.90
12893;DHT22;6514;48.606;9.222;2022-07-29T03:16:05;16.80;99.90
12893;DHT22;6514;48.606;9.222;2022-07-29T03:18:32;16.70;99.90
12893;DHT22;6514;48.606;9.222;2022-07-29T03:21:01;16.70;99.90
12893;DHT22;6514;48.606;9.222;2022-07-29T03:23:29;16.70;99.90
12893;DHT22;6514;48.606;9.222;2022-07-29T03:25:56;16.70;99.90
12893;DHT22;6514;48.606;9.222;2022-07-29T03:28:24;16.70;99.90
12893;DHT22;6514;48.606;9.222;2022-07-29T03:30:53;16.70;99.90
12893;DHT22;6514;48.606;9.222;2022-07-29T03:33:20;16.70;99.90
12893;DHT22;6514;48.606;9.222;2022-07-29T03:35:47;16.60;99.90
12893;DHT22;6514;48.606;9.222;2022-07-29T03:38:15;16.60;99.90
12893;DHT22;6514;48.606;9.222;2022-07-29T03:40:46;16.60;99.90
12893;DHT22;6514;48.606;9.222;2022-07-29T03:43:17;16.60;99.90
12893;DHT22;6514;48.606;9.222;2022-07-29T03:45:47;16.60;99.90
12893;DHT22;6514;48.606;9.222;2022-07-29T03:48:17;16.60;99.90
12893;DHT22;6514;48.606;9.222;2022-07-29T03:50:44;16.60;99.90
12893;DHT22;6514;48.606;9.222;2022-07-29T03:53:11;16.50;99.90
12893;DHT22;6514;48.606;9.222;2022-07-29T03:55:43;16.50;99.90
12893;DHT22;6514;48.606;9.222;2022-07-29T03:58:12;16.50;99.90
12893;DHT22;6514;48.606;9.222;2022-07-29T04:00:40;16.40;99.90
12893;DHT22;6514;48.606;9.222;2022-07-29T04:03:08;16.40;99.90
12893;DHT22;6514;48.606;9.222;2022-07-29T04:05:36;16.40;99.90
12893;DHT22;6514;48.606;9.222;2022-07-29T04:08:03;16.40;99.90
12893;DHT22;6514;48.606;9.222;2022-07-29T04:10:30;16.30;99.90
12893;DHT22;6514;48.606;9.222;2022-07-29T04:12:58;16.30;99.90
12893;DHT22;6514;48.606;9.222;2022-07-29T04:15:25;16.40;99.90
12893;DHT22;6514;48.606;9.222;2022-07-29T04:17:54;16.40;99.90
12893;DHT22;6514;48.606;9.222;2022-07-29T04:20:21;16.40;99.90
12893;DHT22;6514;48.606;9.222;2022-07-29T04:22:48;16.50;99.90
12893;DHT22;6514;48.606;9.222;2022-07-29T04:25:14;16.50;99.90
12893;DHT22;6514;48.606;9.222;2022-07-29T04:27:41;16.60;99.90
12893;DHT22;6514;48.606;9.222;2022-07-29T04:30:23;16.60;99.90
12893;DHT22;6514;48.606;9.222;2022-07-29T04:32:50;16.60;99.90
12893;DHT22;6514;48.606;9.222;2022-07-29T04:35:17;16.60;99.90
12893;DHT22;6514;48.606;9.222;2022-07-29T04:37:45;16.70;99.90
12893;DHT22;6514;48.606;9.222;2022-07-29T04:40:12;16.70;99.90
12893;DHT22;6514;48.606;9.222;2022-07-29T04:42:39;16.70;99.90
12893;DHT22;6514;48.606;9.222;2022-07-29T04:45:06;16.70;99.90
12893;DHT22;6514;48.606;9.222;2022-07-29T04:47:35;16.70;99.90
12893;DHT22;6514;48.606;9.222;2022-07-29T04:50:02;16.80;99.90
12893;DHT22;6514;48.606;9.222;2022-07-29T04:52:29;16.80;99.90
12893;DHT22;6514;48.606;9.222;2022-07-29T04:54:56;16.80;99.90
12893;DHT22;6514;48.606;9.222;2022-07-29T04:57:23;16.80;99.90
12893;DHT22;6514;48.606;9.222;2022-07-29T04:59:50;16.90;99.90
12893;DHT22;6514;48.606;9.222;2022-07-29T05:02:17;17.00;99.90
12893;DHT22;6514;48.606;9.222;2022-07-29T05:04:45;17.10;99.90
12893;DHT22;6514;48.606;9.222;2022-07-29T05:07:12;17.20;99.90
12893;DHT22;6514;48.606;9.222;2022-07-29T05:09:39;17.30;99.90
12893;DHT22;6514;48.606;9.222;2022-07-29T05:12:07;17.50;99.90
12893;DHT22;6514;48.606;9.222;2022-07-29T05:14:33;17.60;99.90
12893;DHT22;6514;48.606;9.222;2022-07-29T05:17:00;17.80;99.90
12893;DHT22;6514;48.606;9.222;2022-07-29T05:19:27;17.90;99.90
12893;DHT22;6514;48.606;9.222;2022-07-29T05:21:56;18.10;99.90
12893;DHT22;6514;48.606;9.222;2022-07-29T05:24:23;18.20;99.90
12893;DHT22;6514;48.606;9.222;2022-07-29T05:26:50;18.40;99.90
12893;DHT22;6514;48.606;9.222;2022-07-29T05:29:16;18.50;99.90
12893;DHT22;6514;48.606;9.222;2022-07-29T05:31:43;18.60;99.90
12893;DHT22;6514;48.606;9.222;2022-07-29T05:34:10;18.80;99.90
12893;DHT22;6514;48.606;9.222;2022-07-29T05:36:37;19.00;99.90
12893;DHT22;6514;48.606;9.222;2022-07-29T05:39:05;19.10;99.90
12893;DHT22;6514;48.606;9.222;2022-07-29T05:41:32;19.20;99.90
12893;DHT22;6514;48.606;9.222;2022-07-29T05:43:59;19.40;99.90
12893;DHT22;6514;48.606;9.222;2022-07-29T05:46:26;19.50;99.90
12893;DHT22;6514;48.606;9.222;2022-07-29T05:48:53;19.70;99.90
12893;DHT22;6514;48.606;9.222;2022-07-29T05:51:20;20.20;99.90
12893;DHT22;6514;48.606;9.222;2022-07-29T05:53:47;20.50;99.90
12893;DHT22;6514;48.606;9.222;2022-07-29T05:56:15;21.00;99.90
12893;DHT22;6514;48.606;9.222;2022-07-29T05:58:42;21.30;99.90
12893;DHT22;6514;48.606;9.222;2022-07-29T06:01:09;21.50;99.90
12893;DHT22;6514;48.606;9.222;2022-07-29T06:03:36;21.70;99.90
12893;DHT22;6514;48.606;9.222;2022-07-29T06:06:04;21.90;99.90
12893;DHT22;6514;48.606;9.222;2022-07-29T06:08:32;21.90;99.90
12893;DHT22;6514;48.606;9.222;2022-07-29T06:11:00;21.80;99.90
12893;DHT22;6514;48.606;9.222;2022-07-29T06:13:28;21.70;99.90
12893;DHT22;6514;48.606;9.222;2022-07-29T06:15:55;21.50;99.90
12893;DHT22;6514;48.606;9.222;2022-07-29T06:18:22;21.30;99.90
12893;DHT22;6514;48.606;9.222;2022-07-29T06:20:50;21.30;99.90
12893;DHT22;6514;48.606;9.222;2022-07-29T06:23:17;21.40;99.90
12893;DHT22;6514;48.606;9.222;2022-07-29T06:25:44;21.60;99.90
12893;DHT22;6514;48.606;9.222;2022-07-29T06:28:11;21.80;99.90
12893;DHT22;6514;48.606;9.222;2022-07-29T06:30:40;22.00;99.90
12893;DHT22;6514;48.606;9.222;2022-07-29T06:33:06;22.00;99.90
12893;DHT22;6514;48.606;9.222;2022-07-29T06:35:34;22.30;99.90
12893;DHT22;6514;48.606;9.222;2022-07-29T06:38:02;22.40;99.90
12893;DHT22;6514;48.606;9.222;2022-07-29T06:40:29;22.60;99.90
12893;DHT22;6514;48.606;9.222;2022-07-29T06:43:13;23.00;99.90
12893;DHT22;6514;48.606;9.222;2022-07-29T06:45:42;23.50;99.90
12893;DHT22;6514;48.606;9.222;2022-07-29T06:48:09;23.70;99.90
12893;DHT22;6514;48.606;9.222;2022-07-29T06:50:36;24.00;99.90
12893;DHT22;6514;48.606;9.222;2022-07-29T06:53:03;24.40;99.90
12893;DHT22;6514;48.606;9.222;2022-07-29T06:55:31;24.80;99.90
12893;DHT22;6514;48.606;9.222;2022-07-29T06:57:58;25.10;99.90
12893;DHT22;6514;48.606;9.222;2022-07-29T07:00:25;25.50;99.90
12893;DHT22;6514;48.606;9.222;2022-07-29T07:02:53;25.90;99.90
12893;DHT22;6514;48.606;9.222;2022-07-29T07:05:20;26.20;99.90
12893;DHT22;6514;48.606;9.222;2022-07-29T07:07:47;26.20;99.90
12893;DHT22;6514;48.606;9.222;2022-07-29T07:10:14;26.10;99.90
12893;DHT22;6514;48.606;9.222;2022-07-29T07:12:41;26.20;99.90
12893;DHT22;6514;48.606;9.222;2022-07-29T07:15:09;26.10;99.90
12893;DHT22;6514;48.606;9.222;2022-07-29T07:17:36;26.10;99.90
12893;DHT22;6514;48.606;9.222;2022-07-29T07:20:05;26.00;99.90
12893;DHT22;6514;48.606;9.222;2022-07-29T07:22:32;25.90;99.90
12893;DHT22;6514;48.606;9.222;2022-07-29T07:25:00;25.80;99.90
12893;DHT22;6514;48.606;9.222;2022-07-29T07:27:26;25.70;99.90
12893;DHT22;6514;48.606;9.222;2022-07-29T07:29:54;25.50;99.90
12893;DHT22;6514;48.606;9.222;2022-07-29T07:32:20;25.20;99.90
12893;DHT22;6514;48.606;9.222;2022-07-29T07:34:47;25.20;99.90
12893;DHT22;6514;48.606;9.222;2022-07-29T07:37:16;24.90;99.90
12893;DHT22;6514;48.606;9.222;2022-07-29T07:39:44;24.70;99.90
12893;DHT22;6514;48.606;9.222;2022-07-29T07:42:11;24.90;99.90
12893;DHT22;6514;48.606;9.222;2022-07-29T07:44:39;25.30;99.90
12893;DHT22;6514;48.606;9.222;2022-07-29T07:47:06;25.90;99.90
12893;DHT22;6514;48.606;9.222;2022-07-29T07:49:33;26.40;99.90
12893;DHT22;6514;48.606;9.222;2022-07-29T07:52:00;26.40;99.90
12893;DHT22;6514;48.606;9.222;2022-07-29T07:54:28;26.50;99.90
12893;DHT22;6514;48.606;9.222;2022-07-29T07:56:55;26.50;99.90
12893;DHT22;6514;48.606;9.222;2022-07-29T07:59:22;26.80;99.90
12893;DHT22;6514;48.606;9.222;2022-07-29T08:01:49;26.90;99.90
12893;DHT22;6514;48.606;9.222;2022-07-29T08:04:16;27.40;99.90
12893;DHT22;6514;48.606;9.222;2022-07-29T08:06:43;27.80;99.90
12893;DHT22;6514;48.606;9.222;2022-07-29T08:09:19;28.10;99.90
12893;DHT22;6514;48.606;9.222;2022-07-29T08:12:00;28.40;99.90
12893;DHT22;6514;48.606;9.222;2022-07-29T08:14:29;28.70;99.90
12893;DHT22;6514;48.606;9.222;2022-07-29T08:16:56;28.90;99.90
12893;DHT22;6514;48.606;9.222;2022-07-29T08:19:23;28.80;99.90
12893;DHT22;6514;48.606;9.222;2022-07-29T08:21:50;28.70;99.90
12893;DHT22;6514;48.606;9.222;2022-07-29T08:24:19;28.40;99.90
12893;DHT22;6514;48.606;9.222;2022-07-29T08:27:05;28.40;99.90
12893;DHT22;6514;48.606;9.222;2022-07-29T08:29:32;28.50;99.90
12893;DHT22;6514;48.606;9.222;2022-07-29T08:31:59;28.60;99.90
12893;DHT22;6514;48.606;9.222;2022-07-29T08:34:26;29.10;99.90
12893;DHT22;6514;48.606;9.222;2022-07-29T08:36:54;29.30;99.90
12893;DHT22;6514;48.606;9.222;2022-07-29T08:39:21;29.40;99.90
12893;DHT22;6514;48.606;9.222;2022-07-29T08:41:48;29.40;99.90
12893;DHT22;6514;48.606;9.222;2022-07-29T08:44:18;29.50;99.90
12893;DHT22;6514;48.606;9.222;2022-07-29T08:46:47;29.90;99.90
12893;DHT22;6514;48.606;9.222;2022-07-29T08:49:15;30.20;99.90
12893;DHT22;6514;48.606;9.222;2022-07-29T08:51:43;30.50;99.90
12893;DHT22;6514;48.606;9.222;2022-07-29T08:54:10;30.80;99.90
12893;DHT22;6514;48.606;9.222;2022-07-29T08:56:38;30.90;99.90
12893;DHT22;6514;48.606;9.222;2022-07-29T08:59:08;31.00;99.90
12893;DHT22;6514;48.606;9.222;2022-07-29T09:01:38;31.30;99.90
12893;DHT22;6514;48.606;9.222;2022-07-29T09:04:10;31.60;99.90
12893;DHT22;6514;48.606;9.222;2022-07-29T09:06:44;32.00;99.90
12893;DHT22;6514;48.606;9.222;2022-07-29T09:09:17;32.30;99.90
12893;DHT22;6514;48.606;9.222;2022-07-29T09:11:48;32.10;99.90
12893;DHT22;6514;48.606;9.222;2022-07-29T09:14:16;32.20;99.90
12893;DHT22;6514;48.606;9.222;2022-07-29T09:16:52;32.50;99.90
12893;DHT22;6514;48.606;9.222;2022-07-29T09:19:24;32.40;99.90
12893;DHT22;6514;48.606;9.222;2022-07-29T09:21:56;32.70;99.90
12893;DHT22;6514;48.606;9.222;2022-07-29T09:24:37;32.90;99.90
12893;DHT22;6514;48.606;9.222;2022-07-29T09:27:10;32.90;99.90
12893;DHT22;6514;48.606;9.222;2022-07-29T09:29:39;32.40;99.90
12893;DHT22;6514;48.606;9.222;2022-07-29T09:32:09;32.30;99.90
12893;DHT22;6514;48.606;9.222;2022-07-29T09:34:37;32.00;99.90
12893;DHT22;6514;48.606;9.222;2022-07-29T09:37:04;31.80;99.90
12893;DHT22;6514;48.606;9.222;2022-07-29T09:39:33;32.00;99.90
12893;DHT22;6514;48.606;9.222;2022-07-29T09:42:03;32.00;99.90
12893;DHT22;6514;48.606;9.222;2022-07-29T09:44:44;31.90;99.90
12893;DHT22;6514;48.606;9.222;2022-07-29T09:47:14;31.70;99.90
12893;DHT22;6514;48.606;9.222;2022-07-29T09:49:53;31.20;99.90
12893;DHT22;6514;48.606;9.222;2022-07-29T09:52:23;30.80;99.90
12893;DHT22;6514;48.606;9.222;2022-07-29T09:54:50;30.70;99.90
12893;DHT22;6514;48.606;9.222;2022-07-29T09:57:24;30.50;99.90
12893;DHT22;6514;48.606;9.222;2022-07-29T09:59:59;30.00;99.90
12893;DHT22;6514;48.606;9.222;2022-07-29T10:02:33;29.90;99.90
12893;DHT22;6514;48.606;9.222;2022-07-29T10:05:02;29.90;99.90
12893;DHT22;6514;48.606;9.222;2022-07-29T10:07:43;29.80;99.90
12893;DHT22;6514;48.606;9.222;2022-07-29T10:10:10;30.00;99.90
12893;DHT22;6514;48.606;9.222;2022-07-29T10:12:52;30.00;99.90
12893;DHT22;6514;48.606;9.222;2022-07-29T10:15:22;30.20;99.90
12893;DHT22;6514;48.606;9.222;2022-07-29T10:17:52;30.50;99.90
12893;DHT22;6514;48.606;9.222;2022-07-29T10:20:19;31.10;99.90
12893;DHT22;6514;48.606;9.222;2022-07-29T10:22:47;31.30;99.90
12893;DHT22;6514;48.606;9.222;2022-07-29T10:25:15;31.40;99.90
12893;DHT22;6514;48.606;9.222;2022-07-29T10:27:43;31.90;99.90
12893;DHT22;6514;48.606;9.222;2022-07-29T10:30:14;32.00;99.90
12893;DHT22;6514;48.606;9.222;2022-07-29T10:32:57;32.20;99.90
12893;DHT22;6514;48.606;9.222;2022-07-29T10:35:38;32.80;99.90
12893;DHT22;6514;48.606;9.222;2022-07-29T10:38:41;33.60;99.90
12893;DHT22;6514;48.606;9.222;2022-07-29T10:41:21;33.80;99.90
12893;DHT22;6514;48.606;9.222;2022-07-29T10:43:54;33.80;99.90
12893;DHT22;6514;48.606;9.222;2022-07-29T10:46:22;33.50;99.90
12893;DHT22;6514;48.606;9.222;2022-07-29T10:49:06;33.20;99.90
12893;DHT22;6514;48.606;9.222;2022-07-29T10:51:55;33.00;99.90
12893;DHT22;6514;48.606;9.222;2022-07-29T10:54:48;32.10;99.90
12893;DHT22;6514;48.606;9.222;2022-07-29T10:57:24;31.70;99.90
12893;DHT22;6514;48.606;9.222;2022-07-29T11:02:51;31.90;99.90
12893;DHT22;6514;48.606;9.222;2022-07-29T11:05:22;32.00;99.90
12893;DHT22;6514;48.606;9.222;2022-07-29T11:08:18;32.00;99.90
12893;DHT22;6514;48.606;9.222;2022-07-29T11:10:47;31.50;99.90
12893;DHT22;6514;48.606;9.222;2022-07-29T11:13:45;30.70;99.90
12893;DHT22;6514;48.606;9.222;2022-07-29T11:16:13;30.20;99.90
12893;DHT22;6514;48.606;9.222;2022-07-29T11:21:44;30.20;99.90
12893;DHT22;6514;48.606;9.222;2022-07-29T11:24:13;30.30;99.90
12893;DHT22;6514;48.606;9.222;2022-07-29T11:26:41;30.70;99.90
12893;DHT22;6514;48.606;9.222;2022-07-29T11:29:18;31.10;99.90
12893;DHT22;6514;48.606;9.222;2022-07-29T11:31:46;31.30;99.90
12893;DHT22;6514;48.606;9.222;2022-07-29T11:34:18;31.10;99.90
12893;DHT22;6514;48.606;9.222;2022-07-29T11:37:15;30.60;99.90
12893;DHT22;6514;48.606;9.222;2022-07-29T11:39:44;29.70;99.90
12893;DHT22;6514;48.606;9.222;2022-07-29T11:45:25;27.90;99.90
12893;DHT22;6514;48.606;9.222;2022-07-29T11:47:58;26.90;99.90
12893;DHT22;6514;48.606;9.222;2022-07-29T11:50:31;25.80;99.90
12893;DHT22;6514;48.606;9.222;2022-07-29T11:53:00;25.00;99.90
12893;DHT22;6514;48.606;9.222;2022-07-29T11:55:27;24.20;99.90
12893;DHT22;6514;48.606;9.222;2022-07-29T11:57:59;24.10;99.90
12893;DHT22;6514;48.606;9.222;2022-07-29T12:00:29;24.40;99.90
12893;DHT22;6514;48.606;9.222;2022-07-29T12:02:58;24.90;99.90
12893;DHT22;6514;48.606;9.222;2022-07-29T12:05:35;25.50;99.90
12893;DHT22;6514;48.606;9.222;2022-07-29T12:08:11;25.90;99.90
12893;DHT22;6514;48.606;9.222;2022-07-29T12:10:39;25.90;99.90
12893;DHT22;6514;48.606;9.222;2022-07-29T12:13:07;25.80;99.90
12893;DHT22;6514;48.606;9.222;2022-07-29T12:15:34;25.70;99.90
12893;DHT22;6514;48.606;9.222;2022-07-29T12:18:13;25.60;99.90
12893;DHT22;6514;48.606;9.222;2022-07-29T12:20:40;25.40;99.90
12893;DHT22;6514;48.606;9.222;2022-07-29T12:23:09;25.30;99.90
12893;DHT22;6514;48.606;9.222;2022-07-29T12:25:39;25.20;99.90
12893;DHT22;6514;48.606;9.222;2022-07-29T12:28:08;25.10;99.90
12893;DHT22;6514;48.606;9.222;2022-07-29T12:30:37;25.00;99.90
12893;DHT22;6514;48.606;9.222;2022-07-29T12:33:12;24.90;99.90
12893;DHT22;6514;48.606;9.222;2022-07-29T12:35:39;24.70;99.90
12893;DHT22;6514;48.606;9.222;2022-07-29T12:38:09;24.50;99.90
12893;DHT22;6514;48.606;9.222;2022-07-29T12:40:37;24.10;99.90
12893;DHT22;6514;48.606;9.222;2022-07-29T12:43:08;23.80;99.90
12893;DHT22;6514;48.606;9.222;2022-07-29T12:45:36;23.50;99.90
12893;DHT22;6514;48.606;9.222;2022-07-29T12:48:03;23.10;99.90
12893;DHT22;6514;48.606;9.222;2022-07-29T12:50:31;22.80;99.90
12893;DHT22;6514;48.606;9.222;2022-07-29T12:53:10;22.50;99.90
12893;DHT22;6514;48.606;9.222;2022-07-29T12:55:45;22.30;99.90
12893;DHT22;6514;48.606;9.222;2022-07-29T12:58:25;22.00;99.90
12893;DHT22;6514;48.606;9.222;2022-07-29T13:01:00;22.00;99.90
12893;DHT22;6514;48.606;9.222;2022-07-29T13:03:27;22.10;99.90
12893;DHT22;6514;48.606;9.222;2022-07-29T13:05:55;22.40;99.90
12893;DHT22;6514;48.606;9.222;2022-07-29T13:08:23;22.90;99.90
12893;DHT22;6514;48.606;9.222;2022-07-29T13:10:50;23.20;99.90
12893;DHT22;6514;48.606;9.222;2022-07-29T13:13:17;23.90;99.90
12893;DHT22;6514;48.606;9.222;2022-07-29T13:15:45;24.60;99.90
12893;DHT22;6514;48.606;9.222;2022-07-29T13:18:29;25.00;99.90
12893;DHT22;6514;48.606;9.222;2022-07-29T13:20:57;25.20;99.90
12893;DHT22;6514;48.606;9.222;2022-07-29T13:23:35;25.20;99.90
12893;DHT22;6514;48.606;9.222;2022-07-29T13:26:05;25.00;99.90
12893;DHT22;6514;48.606;9.222;2022-07-29T13:28:33;24.80;99.90
12893;DHT22;6514;48.606;9.222;2022-07-29T13:31:00;24.50;99.90
12893;DHT22;6514;48.606;9.222;2022-07-29T13:33:27;24.20;99.90
12893;DHT22;6514;48.606;9.222;2022-07-29T13:35:54;23.90;99.90
12893;DHT22;6514;48.606;9.222;2022-07-29T13:38:21;23.40;99.90
12893;DHT22;6514;48.606;9.222;2022-07-29T13:40:49;23.10;99.90
12893;DHT22;6514;48.606;9.222;2022-07-29T13:43:16;22.70;99.90
12893;DHT22;6514;48.606;9.222;2022-07-29T13:45:43;22.50;99.90
12893;DHT22;6514;48.606;9.222;2022-07-29T13:48:10;22.40;99.90
12893;DHT22;6514;48.606;9.222;2022-07-29T13:50:37;22.40;99.90
12893;DHT22;6514;48.606;9.222;2022-07-29T13:53:04;22.40;99.90
12893;DHT22;6514;48.606;9.222;2022-07-29T13:55:31;22.40;99.90
12893;DHT22;6514;48.606;9.222;2022-07-29T13:57:59;22.60;99.90
12893;DHT22;6514;48.606;9.222;2022-07-29T14:00:26;22.90;99.90
12893;DHT22;6514;48.606;9.222;2022-07-29T14:02:54;23.10;99.90
12893;DHT22;6514;48.606;9.222;2022-07-29T14:05:21;23.30;99.90
12893;DHT22;6514;48.606;9.222;2022-07-29T14:07:47;23.50;99.90
12893;DHT22;6514;48.606;9.222;2022-07-29T14:10:14;23.60;99.90
12893;DHT22;6514;48.606;9.222;2022-07-29T14:12:41;23.70;99.90
12893;DHT22;6514;48.606;9.222;2022-07-29T14:15:10;23.70;99.90
12893;DHT22;6514;48.606;9.222;2022-07-29T14:17:37;23.70;99.90
12893;DHT22;6514;48.606;9.222;2022-07-29T14:20:05;23.80;99.90
12893;DHT22;6514;48.606;9.222;2022-07-29T14:22:32;23.90;99.90
12893;DHT22;6514;48.606;9.222;2022-07-29T14:24:59;24.00;99.90
12893;DHT22;6514;48.606;9.222;2022-07-29T14:27:26;24.20;99.90
12893;DHT22;6514;48.606;9.222;2022-07-29T14:29:53;24.20;99.90
12893;DHT22;6514;48.606;9.222;2022-07-29T14:32:21;24.20;99.90
12893;DHT22;6514;48.606;9.222;2022-07-29T14:34:48;24.20;99.90
12893;DHT22;6514;48.606;9.222;2022-07-29T14:37:15;24.10;99.90
12893;DHT22;6514;48.606;9.222;2022-07-29T14:39:42;24.20;99.90
12893;DHT22;6514;48.606;9.222;2022-07-29T14:42:09;24.20;99.90
12893;DHT22;6514;48.606;9.222;2022-07-29T14:44:36;24.20;99.90
12893;DHT22;6514;48.606;9.222;2022-07-29T14:47:03;24.20;99.90
12893;DHT22;6514;48.606;9.222;2022-07-29T14:49:31;24.00;99.90
12893;DHT22;6514;48.606;9.222;2022-07-29T14:51:58;24.10;99.90
12893;DHT22;6514;48.606;9.222;2022-07-29T14:54:25;24.00;99.90
12893;DHT22;6514;48.606;9.222;2022-07-29T14:56:52;23.80;99.90
12893;DHT22;6514;48.606;9.222;2022-07-29T14:59:22;23.50;99.90
12893;DHT22;6514;48.606;9.222;2022-07-29T15:01:49;23.50;99.90
12893;DHT22;6514;48.606;9.222;2022-07-29T15:04:16;23.50;99.90
12893;DHT22;6514;48.606;9.222;2022-07-29T15:06:44;23.50;99.90
12893;DHT22;6514;48.606;9.222;2022-07-29T15:09:11;23.50;99.90
12893;DHT22;6514;48.606;9.222;2022-07-29T15:11:38;23.40;99.90
12893;DHT22;6514;48.606;9.222;2022-07-29T15:14:05;23.40;99.90
12893;DHT22;6514;48.606;9.222;2022-07-29T15:16:34;23.40;99.90
12893;DHT22;6514;48.606;9.222;2022-07-29T15:19:01;23.30;99.90
12893;DHT22;6514;48.606;9.222;2022-07-29T15:21:28;23.20;99.90
12893;DHT22;6514;48.606;9.222;2022-07-29T15:23:57;23.20;99.90
12893;DHT22;6514;48.606;9.222;2022-07-29T15:26:24;23.20;99.90
12893;DHT22;6514;48.606;9.222;2022-07-29T15:28:51;23.20;99.90
12893;DHT22;6514;48.606;9.222;2022-07-29T15:31:18;23.30;99.90
12893;DHT22;6514;48.606;9.222;2022-07-29T15:33:45;23.40;99.90
12893;DHT22;6514;48.606;9.222;2022-07-29T15:36:12;23.50;99.90
12893;DHT22;6514;48.606;9.222;2022-07-29T15:38:39;23.50;99.90
12893;DHT22;6514;48.606;9.222;2022-07-29T15:41:08;23.60;99.90
12893;DHT22;6514;48.606;9.222;2022-07-29T15:43:35;23.70;99.90
12893;DHT22;6514;48.606;9.222;2022-07-29T15:46:02;23.70;99.90
12893;DHT22;6514;48.606;9.222;2022-07-29T15:48:46;23.70;99.90
12893;DHT22;6514;48.606;9.222;2022-07-29T15:51:13;23.70;99.90
12893;DHT22;6514;48.606;9.222;2022-07-29T15:53:40;23.70;99.90
12893;DHT22;6514;48.606;9.222;2022-07-29T15:56:09;23.70;99.90
12893;DHT22;6514;48.606;9.222;2022-07-29T15:58:36;23.70;99.90
12893;DHT22;6514;48.606;9.222;2022-07-29T16:01:03;23.60;99.90
12893;DHT22;6514;48.606;9.222;2022-07-29T16:03:30;23.70;99.90
12893;DHT22;6514;48.606;9.222;2022-07-29T16:05:57;23.80;99.90
12893;DHT22;6514;48.606;9.222;2022-07-29T16:08:24;23.90;99.90
12893;DHT22;6514;48.606;9.222;2022-07-29T16:10:51;24.00;99.90